createdAt,value
2022-10-25T00:01:51.085Z,99.25
2022-10-25T00:04:53.728Z,99.41
2022-10-25T00:07:56.297Z,98.68
2022-10-25T00:11:00.270Z,99.31
2022-10-25T00:14:05.732Z,97.87
2022-10-25T00:17:08.483Z,99.09
2022-10-25T00:20:12.661Z,98.80
2022-10-25T00:23:15.913Z,98.17
2022-10-25T00:26:20.339Z,97.71
2022-10-25T00:32:26.456Z,97.75
2022-10-25T00:35:29.148Z,97.88
2022-10-25T00:38:31.944Z,97.47
2022-10-25T00:41:36.006Z,97.69
2022-10-25T00:44:54.005Z,97.10
2022-10-25T00:47:59.303Z,97.88
2022-10-25T00:51:02.572Z,98.17
2022-10-25T00:54:05.750Z,97.56
2022-10-25T00:57:13.796Z,98.33
2022-10-25T01:00:16.830Z,97.85
2022-10-25T01:03:22.222Z,97.30
2022-10-25T01:06:29.493Z,96.58
2022-10-25T01:09:33.567Z,95.38
2022-10-25T01:12:37.520Z,94.97
2022-10-25T01:15:48.018Z,95.58
2022-10-25T01:18:57.105Z,95.30
2022-10-25T01:22:03.392Z,94.81
2022-10-25T01:25:29.006Z,95.26
2022-10-25T01:28:43.388Z,93.78
2022-10-25T01:31:50.017Z,93.42
2022-10-25T01:34:58.198Z,94.32
2022-10-25T01:38:17.115Z,94.62
2022-10-25T01:41:26.132Z,95.02
2022-10-25T01:47:45.318Z,94.06
2022-10-25T01:50:49.020Z,94.64
2022-10-25T01:53:52.885Z,94.54
2022-10-25T01:57:04.850Z,94.68
2022-10-25T02:00:10.777Z,94.74
2022-10-25T02:03:20.006Z,94.22
2022-10-25T02:06:28.761Z,94.83
2022-10-25T02:09:34.833Z,95.35
2022-10-25T02:12:44.381Z,97.30
2022-10-25T02:15:55.394Z,97.60
2022-10-25T02:19:00.977Z,97.09
2022-10-25T02:22:04.692Z,98.11
2022-10-25T02:25:08.947Z,97.88
2022-10-25T02:28:13.327Z,98.42
2022-10-25T02:31:18.993Z,98.82
2022-10-25T02:34:23.179Z,98.52
2022-10-25T02:37:25.893Z,98.03
2022-10-25T02:40:28.809Z,98.78
2022-10-25T02:43:31.385Z,97.93
2022-10-25T02:46:33.991Z,98.28
2022-10-25T02:49:38.342Z,97.61
2022-10-25T02:52:40.954Z,98.64
2022-10-25T02:55:44.519Z,99.07
2022-10-25T02:58:47.547Z,98.62
2022-10-25T03:01:50.222Z,97.93
2022-10-25T03:04:54.301Z,98.60
2022-10-25T03:07:56.928Z,97.84
2022-10-25T03:10:59.629Z,98.28
2022-10-25T03:14:02.317Z,98.25
2022-10-25T03:17:06.372Z,98.03
2022-10-25T03:20:11.657Z,97.17
2022-10-25T03:23:14.605Z,96.77
2022-10-25T03:26:17.704Z,97.89
2022-10-25T03:29:20.805Z,96.74
2022-10-25T03:32:23.464Z,96.55
2022-10-25T03:35:27.736Z,96.25
2022-10-25T03:38:30.409Z,96.21
2022-10-25T03:41:33.001Z,96.01
2022-10-25T03:44:36.097Z,96.87
2022-10-25T03:47:38.900Z,96.38
2022-10-25T03:50:43.228Z,96.31
2022-10-25T03:53:45.884Z,95.42
2022-10-25T03:56:48.559Z,96.65
2022-10-25T03:59:51.224Z,95.88
2022-10-25T04:02:59.421Z,96.23
2022-10-25T04:06:06.186Z,96.19
2022-10-25T04:09:08.903Z,95.74
2022-10-25T04:12:11.508Z,95.93
2022-10-25T04:15:14.773Z,95.62
2022-10-25T04:18:17.454Z,94.84
2022-10-25T04:21:21.547Z,94.70
2022-10-25T04:24:24.322Z,93.62
2022-10-25T04:27:27.330Z,93.60
2022-10-25T04:30:31.953Z,93.82
2022-10-25T04:33:36.425Z,95.18
2022-10-25T04:36:40.694Z,95.83
2022-10-25T04:39:43.378Z,96.21
2022-10-25T04:42:46.318Z,96.49
2022-10-25T04:45:49.430Z,96.72
2022-10-25T04:48:52.136Z,96.14
2022-10-25T04:51:56.564Z,96.72
2022-10-25T04:54:59.423Z,97.56
2022-10-25T04:58:02.136Z,97.64
2022-10-25T05:01:07.333Z,98.35
2022-10-25T05:04:10.154Z,97.14
2022-10-25T05:07:14.335Z,97.65
2022-10-25T05:10:17.142Z,95.89
2022-10-25T05:13:19.843Z,96.12
2022-10-25T05:16:24.906Z,96.16
2022-10-25T05:19:27.572Z,96.48
2022-10-25T05:22:32.248Z,96.76
2022-10-25T05:25:34.819Z,97.23
2022-10-25T05:28:38.838Z,97.40
2022-10-25T05:31:42.567Z,98.06
2022-10-25T05:34:45.315Z,98.03
2022-10-25T05:37:49.450Z,97.89
2022-10-25T05:40:55.856Z,98.21
2022-10-25T05:43:58.856Z,98.65
2022-10-25T05:47:01.757Z,98.48
2022-10-25T05:50:04.481Z,98.54
2022-10-25T05:53:08.642Z,99.09
2022-10-25T05:56:12.349Z,98.12
2022-10-25T05:59:18.699Z,98.52
2022-10-25T06:02:21.506Z,98.68
2022-10-25T06:05:24.244Z,98.89
2022-10-25T06:08:28.353Z,99.21
2022-10-25T06:11:31.633Z,100.00
2022-10-25T06:14:34.398Z,99.53
2022-10-25T06:17:37.150Z,98.67
2022-10-25T06:23:44.371Z,96.22
2022-10-25T06:26:47.139Z,95.55
2022-10-25T06:29:49.954Z,93.85
2022-10-25T06:32:52.564Z,92.40
2022-10-25T06:35:56.420Z,91.36
2022-10-25T06:39:05.809Z,92.60
2022-10-25T06:42:09.517Z,92.53
2022-10-25T06:45:12.304Z,93.11
2022-10-25T06:48:14.983Z,93.86
2022-10-25T06:51:17.749Z,93.77
2022-10-25T06:54:21.693Z,93.86
2022-10-25T06:57:24.482Z,94.57
2022-10-25T07:00:27.293Z,95.10
2022-10-25T07:03:34.952Z,93.73
2022-10-25T07:06:38.003Z,92.75
2022-10-25T07:09:42.103Z,92.62
2022-10-25T07:12:44.972Z,91.08
2022-10-25T07:15:47.862Z,89.52
2022-10-25T07:18:50.624Z,87.58
2022-10-25T07:21:53.241Z,88.63
2022-10-25T07:24:57.218Z,86.75
2022-10-25T07:27:59.797Z,85.70
2022-10-25T07:31:02.894Z,86.56
2022-10-25T07:34:06.582Z,87.16
2022-10-25T07:37:09.482Z,87.75
2022-10-25T07:40:14.166Z,87.21
2022-10-25T07:43:16.804Z,85.00
2022-10-25T07:46:19.589Z,85.36
2022-10-25T07:49:22.328Z,83.62
2022-10-25T07:52:25.275Z,82.75
2022-10-25T07:55:29.261Z,81.34
2022-10-25T07:58:32.045Z,80.09
2022-10-25T08:01:34.720Z,77.76
2022-10-25T08:04:37.433Z,78.47
2022-10-25T08:07:40.060Z,77.12
2022-10-25T08:10:44.974Z,76.14
2022-10-25T08:13:49.931Z,75.91
2022-10-25T08:16:52.560Z,75.74
2022-10-25T08:19:56.315Z,75.45
2022-10-25T08:22:59.166Z,74.22
2022-10-25T08:26:03.601Z,73.71
2022-10-25T08:29:06.303Z,73.43
2022-10-25T08:32:08.917Z,73.71
2022-10-25T08:35:11.504Z,73.10
2022-10-25T08:38:14.081Z,72.36
2022-10-25T08:41:20.362Z,71.56
2022-10-25T08:44:33.182Z,71.24
2022-10-25T08:47:38.204Z,71.16
2022-10-25T08:50:43.850Z,70.96
2022-10-25T08:53:48.916Z,70.37
2022-10-25T08:57:14.578Z,69.35
2022-10-25T09:00:21.041Z,69.22
2022-10-25T09:03:25.578Z,68.15
2022-10-25T09:06:35.913Z,67.66
2022-10-25T09:09:43.633Z,67.67
2022-10-25T09:12:53.577Z,67.76
2022-10-25T09:16:02.273Z,67.45
2022-10-25T09:19:09.686Z,67.26
2022-10-25T09:22:15.467Z,66.41
2022-10-25T09:25:22.885Z,66.45
2022-10-25T09:28:35.689Z,66.07
2022-10-25T09:31:40.757Z,65.37
2022-10-25T09:34:43.561Z,65.03
2022-10-25T09:37:50.018Z,65.60
2022-10-25T09:41:02.852Z,65.45
2022-10-25T09:44:12.298Z,65.27
2022-10-25T09:47:22.299Z,65.36
2022-10-25T09:50:27.482Z,65.02
2022-10-25T09:53:32.575Z,65.62
2022-10-25T09:56:35.195Z,64.89
2022-10-25T09:59:39.313Z,62.80
2022-10-25T10:02:42.509Z,62.83
2022-10-25T10:05:48.722Z,62.41
2022-10-25T10:08:52.949Z,61.78
2022-10-25T10:11:55.651Z,61.77
2022-10-25T10:15:02.615Z,61.38
2022-10-25T10:18:25.268Z,60.31
2022-10-25T10:21:28.057Z,61.00
2022-10-25T10:24:32.059Z,60.85
2022-10-25T10:27:35.247Z,61.23
2022-10-25T10:30:39.906Z,60.53
2022-10-25T10:33:42.598Z,60.74
2022-10-25T10:36:45.862Z,60.83
2022-10-25T10:39:52.781Z,60.65
2022-10-25T10:42:58.327Z,60.40
2022-10-25T10:46:09.827Z,60.06
2022-10-25T10:49:12.711Z,59.38
2022-10-25T10:52:29.151Z,59.26
2022-10-25T10:55:33.379Z,58.56
2022-10-25T10:58:38.876Z,58.67
2022-10-25T11:01:43.221Z,58.16
2022-10-25T11:04:49.939Z,57.69
2022-10-25T11:07:57.379Z,56.67
2022-10-25T11:11:14.335Z,56.28
2022-10-25T11:14:19.982Z,56.33
2022-10-25T11:17:27.145Z,56.47
2022-10-25T11:20:33.177Z,54.96
2022-10-25T11:23:39.630Z,54.50
2022-10-25T11:26:51.773Z,54.24
2022-10-25T11:30:03.768Z,53.93
2022-10-25T11:33:28.538Z,53.81
2022-10-25T11:36:51.591Z,53.04
2022-10-25T11:40:01.885Z,53.18
2022-10-25T11:43:17.319Z,52.10
2022-10-25T11:46:25.201Z,50.71
2022-10-25T11:49:36.897Z,48.71
2022-10-25T11:52:59.566Z,48.77
2022-10-25T11:56:08.399Z,46.82
2022-10-25T11:59:17.249Z,45.42
2022-10-25T12:02:42.528Z,45.72
2022-10-25T12:05:50.873Z,46.73
2022-10-25T12:09:03.411Z,46.28
2022-10-25T12:12:08.019Z,47.25
2022-10-25T12:15:15.441Z,46.94
2022-10-25T12:18:25.360Z,46.07
2022-10-25T12:21:36.757Z,45.06
2022-10-25T12:24:42.683Z,43.55
2022-10-25T12:27:49.521Z,43.35
2022-10-25T12:30:57.414Z,42.76
2022-10-25T12:34:06.610Z,41.60
2022-10-25T12:37:16.218Z,40.56
2022-10-25T12:40:21.717Z,44.17
2022-10-25T12:43:28.415Z,36.79
2022-10-25T12:46:52.666Z,26.69
2022-10-25T12:50:11.978Z,28.73
2022-10-25T12:53:50.298Z,26.21
2022-10-25T12:57:00.920Z,29.44
2022-10-25T13:00:11.464Z,31.83
2022-10-25T13:03:35.335Z,31.37
2022-10-25T13:06:39.167Z,28.16
2022-10-25T13:09:43.535Z,25.61
2022-10-25T13:13:00.076Z,31.42
2022-10-25T13:16:04.573Z,32.19
2022-10-25T13:19:42.781Z,24.38
2022-10-25T13:22:47.866Z,23.98
2022-10-25T13:26:08.212Z,34.36
2022-10-25T13:29:45.524Z,33.89
2022-10-25T13:33:28.978Z,38.94
2022-10-25T13:36:47.960Z,33.52
2022-10-25T13:39:54.189Z,25.15
2022-10-25T13:43:06.333Z,23.27
2022-10-25T13:46:11.266Z,23.10
2022-10-25T13:49:31.684Z,29.16
2022-10-25T13:52:35.216Z,35.50
2022-10-25T13:55:39.647Z,37.17
2022-10-25T13:58:46.946Z,26.34
2022-10-25T14:01:54.867Z,22.83
2022-10-25T14:04:57.616Z,23.92
2022-10-25T14:08:12.991Z,22.61
2022-10-25T14:11:19.329Z,22.07
2022-10-25T14:14:28.982Z,25.51
2022-10-25T14:17:35.356Z,31.74
2022-10-25T14:20:38.760Z,36.68
2022-10-25T14:23:41.872Z,39.99
2022-10-25T14:26:56.115Z,42.84
2022-10-25T14:30:25.538Z,44.48
2022-10-25T14:33:30.519Z,45.30
2022-10-25T14:36:34.154Z,45.46
2022-10-25T14:39:36.996Z,46.12
2022-10-25T14:42:39.675Z,46.89
2022-10-25T14:45:56.238Z,43.22
2022-10-25T14:49:00.087Z,41.44
2022-10-25T14:52:04.381Z,38.48
2022-10-25T14:55:08.111Z,33.23
2022-10-25T14:58:12.634Z,31.85
2022-10-25T15:01:20.398Z,28.71
2022-10-25T15:04:28.026Z,29.29
2022-10-25T15:07:32.380Z,27.74
2022-10-25T15:10:41.833Z,28.42
2022-10-25T15:13:45.662Z,30.21
2022-10-25T15:16:51.914Z,36.06
2022-10-25T15:20:06.895Z,40.86
2022-10-25T15:23:16.711Z,45.68
2022-10-25T15:26:24.585Z,49.98
2022-10-25T15:29:31.996Z,52.68
2022-10-25T15:32:37.083Z,54.79
2022-10-25T15:35:48.253Z,57.35
2022-10-25T15:39:07.897Z,59.00
2022-10-25T15:42:15.325Z,60.85
2022-10-25T15:45:18.587Z,61.68
2022-10-25T15:48:24.225Z,63.39
2022-10-25T15:51:30.178Z,63.74
2022-10-25T15:54:34.682Z,65.19
2022-10-25T15:57:37.297Z,66.04
2022-10-25T16:00:40.159Z,67.79
2022-10-25T16:03:44.323Z,68.82
2022-10-25T16:06:47.500Z,70.37
2022-10-25T16:09:50.187Z,71.05
2022-10-25T16:12:58.568Z,72.36
2022-10-25T16:16:11.852Z,73.48
2022-10-25T16:19:31.486Z,74.51
2022-10-25T16:22:34.341Z,75.37
2022-10-25T16:25:36.962Z,76.05
2022-10-25T16:28:40.932Z,76.71
2022-10-25T16:31:44.543Z,77.22
2022-10-25T16:34:48.627Z,77.79
2022-10-25T16:37:51.470Z,78.34
2022-10-25T16:40:54.202Z,79.01
2022-10-25T16:43:57.379Z,79.22
2022-10-25T16:47:00.212Z,79.80
2022-10-25T16:50:04.354Z,79.84
2022-10-25T16:53:09.150Z,80.51
2022-10-25T16:56:12.102Z,80.88
2022-10-25T16:59:14.857Z,81.15
2022-10-25T17:02:18.998Z,81.32
2022-10-25T17:05:24.819Z,81.37
2022-10-25T17:08:27.506Z,81.65
2022-10-25T17:11:30.233Z,81.95
2022-10-25T17:14:32.987Z,82.50
2022-10-25T17:17:36.004Z,83.02
2022-10-25T17:20:40.116Z,82.61
2022-10-25T17:23:43.140Z,83.22
2022-10-25T17:26:45.724Z,83.39
2022-10-25T17:29:48.754Z,83.86
2022-10-25T17:32:51.619Z,83.92
2022-10-25T17:35:56.021Z,84.43
2022-10-25T17:38:58.700Z,84.69
2022-10-25T17:42:01.610Z,84.97
2022-10-25T17:45:04.348Z,84.43
2022-10-25T17:48:07.365Z,84.86
2022-10-25T17:51:12.760Z,85.23
2022-10-25T17:54:16.678Z,85.74
2022-10-25T17:57:19.397Z,85.42
2022-10-25T18:00:22.165Z,85.83
2022-10-25T18:03:24.905Z,86.25
2022-10-25T18:06:29.158Z,87.43
2022-10-25T18:09:31.969Z,87.96
2022-10-25T18:12:34.686Z,87.51
2022-10-25T18:15:38.627Z,86.93
2022-10-25T18:18:41.571Z,86.75
2022-10-25T18:21:45.660Z,86.63
2022-10-25T18:24:48.569Z,87.39
2022-10-25T18:27:51.536Z,87.85
2022-10-25T18:30:59.748Z,87.73
2022-10-25T18:34:04.404Z,88.08
2022-10-25T18:37:08.528Z,88.03
2022-10-25T18:40:11.994Z,87.84
2022-10-25T18:43:14.872Z,87.21
2022-10-25T18:46:17.875Z,88.15
2022-10-25T18:49:20.689Z,88.24
2022-10-25T18:52:24.821Z,87.66
2022-10-25T18:55:28.331Z,87.62
2022-10-25T18:58:31.308Z,87.76
2022-10-25T19:01:34.075Z,89.26
2022-10-25T19:04:37.705Z,90.25
2022-10-25T19:07:41.568Z,90.62
2022-10-25T19:10:44.210Z,90.93
2022-10-25T19:13:50.366Z,90.89
2022-10-25T19:16:54.086Z,90.61
2022-10-25T19:19:56.845Z,90.81
2022-10-25T19:23:00.821Z,91.26
2022-10-25T19:26:04.307Z,91.46
2022-10-25T19:29:06.984Z,91.43
2022-10-25T19:32:09.633Z,90.39
2022-10-25T19:35:12.389Z,90.41
2022-10-25T19:38:16.373Z,89.97
2022-10-25T19:41:20.829Z,89.57
2022-10-25T19:44:24.255Z,89.70
2022-10-25T19:47:26.976Z,90.43
2022-10-25T19:50:30.745Z,91.51
2022-10-25T19:53:34.830Z,90.89
2022-10-25T19:56:39.123Z,90.73
2022-10-25T19:59:43.083Z,89.52
2022-10-25T20:02:45.880Z,88.97
2022-10-25T20:05:48.712Z,89.20
2022-10-25T20:08:53.052Z,90.33
2022-10-25T20:11:55.682Z,90.64
2022-10-25T20:14:58.884Z,89.69
2022-10-25T20:18:02.246Z,89.70
2022-10-25T20:21:07.371Z,88.82
2022-10-25T20:24:11.558Z,88.65
2022-10-25T20:27:14.215Z,87.61
2022-10-25T20:30:17.408Z,87.94
2022-10-25T20:33:20.467Z,87.37
2022-10-25T20:36:23.563Z,87.08
2022-10-25T20:39:27.580Z,86.61
2022-10-25T20:42:30.267Z,86.93
2022-10-25T20:45:33.138Z,87.46
2022-10-25T20:48:36.263Z,88.03
2022-10-25T20:51:39.213Z,88.04
2022-10-25T20:54:43.316Z,88.10
2022-10-25T20:57:46.433Z,87.80
2022-10-25T21:00:50.032Z,87.43
2022-10-25T21:03:54.025Z,87.72
2022-10-25T21:06:56.828Z,87.42
2022-10-25T21:10:00.941Z,88.18
2022-10-25T21:13:03.779Z,88.01
2022-10-25T21:16:07.531Z,88.95
2022-10-25T21:19:10.257Z,88.22
2022-10-25T21:22:12.972Z,88.33
2022-10-25T21:25:17.271Z,88.40
2022-10-25T21:28:19.906Z,87.87
2022-10-25T21:31:22.612Z,86.94
2022-10-25T21:34:25.249Z,87.30
2022-10-25T21:37:27.998Z,87.88
2022-10-25T21:40:31.992Z,87.42
2022-10-25T21:43:34.765Z,87.42
2022-10-25T21:46:37.511Z,87.17
2022-10-25T21:49:40.399Z,86.92
2022-10-25T21:52:43.041Z,86.71
2022-10-25T21:55:47.021Z,86.53
2022-10-25T21:58:50.937Z,86.14
2022-10-25T22:01:53.606Z,85.94
2022-10-25T22:04:56.398Z,85.75
2022-10-25T22:07:59.172Z,85.15
2022-10-25T22:11:05.018Z,85.29
2022-10-25T22:14:10.688Z,82.90
2022-10-25T22:17:13.812Z,81.68
2022-10-25T22:20:16.745Z,81.47
2022-10-25T22:23:19.457Z,81.01
2022-10-25T22:26:23.474Z,81.26
2022-10-25T22:29:26.378Z,81.53
2022-10-25T22:32:29.052Z,81.30
2022-10-25T22:35:31.830Z,81.24
2022-10-25T22:38:34.932Z,81.50
2022-10-25T22:41:39.062Z,81.76
2022-10-25T22:44:41.835Z,81.67
2022-10-25T22:47:44.852Z,81.50
2022-10-25T22:50:51.595Z,81.35
2022-10-25T22:53:54.599Z,81.08
2022-10-25T22:56:58.646Z,81.03
2022-10-25T23:00:01.230Z,81.38
2022-10-25T23:03:04.191Z,81.44
2022-10-25T23:06:08.770Z,81.58
2022-10-25T23:09:11.854Z,81.75
2022-10-25T23:12:15.989Z,82.33
2022-10-25T23:15:18.725Z,81.83
2022-10-25T23:18:21.391Z,81.84
2022-10-25T23:21:24.964Z,81.81
2022-10-25T23:24:27.435Z,81.01
2022-10-25T23:27:31.965Z,81.11
2022-10-25T23:30:36.012Z,81.86
2022-10-25T23:33:39.305Z,82.25
2022-10-25T23:36:42.035Z,82.22
2022-10-25T23:39:44.675Z,82.32
2022-10-25T23:42:48.651Z,82.24
2022-10-25T23:45:51.326Z,82.54
2022-10-25T23:48:54.020Z,82.64
2022-10-25T23:51:56.650Z,82.55
2022-10-25T23:54:59.302Z,82.30
2022-10-25T23:58:03.402Z,82.49
